Yucca Valley, CA

1:26 PM PST on February 20, 2017 (GMT -0800)
Western Hills Estates | | Change Station

Elev 3924 ft 34.15 °N, 116.43 °W | Updated 14 seconds ago

Clear
Clear
52.1 °F
Feels Like 52.1 °F
N
26.0
Wind Variable Wind from SW
Gusts 35.0 mph

Today
High -- | Low -- °F
--% Chance of Precip.
Yesterday
High -- | Low -- °F
Precip. -- in
Pressure 30.18 in
Visibility 10.0 miles
Clouds Few 6000 ft
Dew Point 47 °F
Humidity 84%
Rainfall 0.00 in
Snow Depth Not available.
6:24 AM 5:34 PM
Waning Crescent, 31% visible
METAR KNXP 202056Z 13010KT 10SM FEW060 18/08 A3025 RMK AO2 SLP220 T01780078 58011
Pressure 30.18 in
Visibility 10.0 miles
Clouds Few 6000 ft
Dew Point 47 °F
Humidity 84%
Rainfall 0.00 in
Snow Depth Not available.
6:24 AM 5:34 PM
Waning Crescent, 31% visible
METAR KNXP 202056Z 13010KT 10SM FEW060 18/08 A3025 RMK AO2 SLP220 T01780078 58011

Get Your Daily Forecast Email!

Thanks for signing up!

Be on the lookout for a verification email in your inbox.

You'll start receiving the daily forecast at 8 AM.

×

10-Day Weather Forecast

Almanac

Astronomy

Feb. 20, 2017 Rise Set
Actual Time
Civil Twilight
Nautical Twilight
Astronomical Twilight
Moon
Length of Visible Light
Length of Day
Tomorrow will be .
, % of the Moon is Illuminated

Today's Extremes

State Highs State Lows

Community

WunderPhotos

Upload Photos

1,962,540 photos uploaded!

WunderBlog® & News

Nearby

Air Quality

  Air Quality AQ Index Pollutant
Not available.

Snow Depth

Station Depth Elevation

Earthquake Activity

City Distance Mag. Time & Date
Minimum magnitude displayed is 2.5.

Coastal Water Temperatures

Place Temperature

Stations

Nearby Weather Stations

Station Location Temp. Windchill Dew Point Humidity Wind Precip. Elev Updated Type
                   

Watches & Warnings

There are currently no watches in effect.